Time;durP1;ratioP1;P1;durP2;ratioP2;P2;SDS_P1;SDS_P2;PMS_P1;PMS_P2;Temp;Humidity;BMP_temperature;BMP_pressure;BME280_temperature;BME280_humidity;BME280_pressure;Samples;Min_cycle;Max_cycle;Signal;HPM_P1;HPM_P2
2023/12/18 00:01:10;;;;;;;7.33;4.10;;;7.50;99.90;;;;;;5018783;28;20047;-22
2023/12/18 00:03:36;;;;;;;7.88;3.83;;;7.40;99.90;;;;;;5013110;28;20087;-22
2023/12/18 00:06:03;;;;;;;7.72;4.10;;;7.40;99.90;;;;;;4999305;28;20585;-22
2023/12/18 00:08:28;;;;;;;7.10;3.60;;;7.40;99.90;;;;;;5028925;28;20068;-22
2023/12/18 00:10:54;;;;;;;7.63;4.33;;;7.40;99.90;;;;;;5002947;28;20612;-22
2023/12/18 00:13:20;;;;;;;7.05;3.50;;;7.40;99.90;;;;;;4991798;28;20556;-22
2023/12/18 00:15:46;;;;;;;6.67;3.20;;;7.40;99.90;;;;;;5028789;28;20028;-22
2023/12/18 00:18:11;;;;;;;9.02;3.65;;;7.30;99.90;;;;;;5019981;28;20934;-22
2023/12/18 00:20:37;;;;;;;7.07;3.90;;;7.30;99.90;;;;;;5026056;28;20029;-22
2023/12/18 00:23:03;;;;;;;6.93;3.60;;;7.20;99.90;;;;;;5020914;28;20503;-22
2023/12/18 00:25:29;;;;;;;8.68;4.13;;;7.20;99.90;;;;;;4992774;28;20391;-22
2023/12/18 00:27:55;;;;;;;6.57;3.50;;;5.30;99.90;;;;;;5001676;28;20422;-22
2023/12/18 00:30:21;;;;;;;7.20;3.85;;;7.10;99.90;;;;;;5027506;28;21180;-22
2023/12/18 00:32:46;;;;;;;8.47;4.17;;;7.20;99.90;;;;;;4988430;28;20021;-22
2023/12/18 00:35:12;;;;;;;8.55;3.88;;;7.20;99.90;;;;;;5025415;28;20024;-22
2023/12/18 00:37:38;;;;;;;7.72;3.65;;;7.10;99.90;;;;;;4964412;28;20103;-22
2023/12/18 00:40:05;;;;;;;9.17;4.00;;;7.10;99.90;;;;;;5017568;28;20032;-22
2023/12/18 00:42:31;;;;;;;6.40;3.20;;;7.00;99.90;;;;;;4978844;28;20278;-22
2023/12/18 00:44:57;;;;;;;8.93;3.92;;;7.00;99.90;;;;;;5030024;28;20138;-22
2023/12/18 00:47:22;;;;;;;7.27;3.60;;;7.00;99.90;;;;;;5025048;28;20037;-22
2023/12/18 00:49:48;;;;;;;7.68;3.67;;;7.00;99.90;;;;;;4989035;28;20037;-22
2023/12/18 00:52:15;;;;;;;7.47;3.50;;;7.00;99.90;;;;;;5021898;28;20029;-22
2023/12/18 00:54:41;;;;;;;7.15;3.58;;;7.00;99.90;;;;;;5003997;28;20075;-22
2023/12/18 00:57:06;;;;;;;6.63;3.35;;;7.00;99.90;;;;;;5002434;28;20025;-22
2023/12/18 00:59:32;;;;;;;7.78;3.78;;;7.10;99.90;;;;;;5013931;28;20239;-22
2023/12/18 01:01:58;;;;;;;8.87;3.97;;;7.10;99.90;;;;;;5030789;28;20025;-22
2023/12/18 01:04:24;;;;;;;7.38;3.65;;;7.10;99.90;;;;;;4988594;28;20060;-22
2023/12/18 01:06:50;;;;;;;6.87;3.90;;;7.10;99.90;;;;;;5029247;28;20029;-22
2023/12/18 01:09:16;;;;;;;7.03;3.50;;;7.20;99.90;;;;;;4994155;28;20051;-22
2023/12/18 01:11:42;;;;;;;8.43;4.13;;;7.20;99.90;;;;;;5004673;28;20065;-22
2023/12/18 01:14:09;;;;;;;10.60;4.45;;;7.20;99.90;;;;;;5016387;28;20017;-22
2023/12/18 01:16:35;;;;;;;7.60;4.23;;;7.20;99.90;;;;;;5029118;28;20650;-22
2023/12/18 01:19:02;;;;;;;8.93;4.45;;;7.30;99.90;;;;;;5019906;28;20025;-22
2023/12/18 01:21:28;;;;;;;7.32;4.20;;;7.30;99.90;;;;;;5005547;28;20048;-22
2023/12/18 01:23:53;;;;;;;8.95;4.57;;;7.30;99.90;;;;;;4991366;28;20021;-22
2023/12/18 01:26:19;;;;;;;7.97;4.20;;;7.40;99.90;;;;;;5020879;28;20045;-22
2023/12/18 01:28:45;;;;;;;7.53;4.07;;;7.40;99.90;;;;;;5010801;28;20025;-22
2023/12/18 01:31:21;;;;;;;10.73;4.65;;;7.40;99.90;;;;;;5025360;28;20751;-22
2023/12/18 01:33:47;;;;;;;7.45;3.70;;;7.40;99.90;;;;;;5029612;28;20017;-22
2023/12/18 01:36:12;;;;;;;8.33;4.23;;;7.40;99.90;;;;;;4980073;28;20563;-22
2023/12/18 01:38:38;;;;;;;10.23;4.40;;;7.40;99.90;;;;;;5016246;28;20033;-22
2023/12/18 01:41:04;;;;;;;9.85;4.72;;;7.50;99.90;;;;;;5026190;28;20021;-22
2023/12/18 01:43:30;;;;;;;9.70;4.40;;;7.50;99.90;;;;;;4986985;28;20041;-22
2023/12/18 01:45:58;;;;;;;11.25;4.68;;;7.50;99.90;;;;;;5020643;28;20305;-22
2023/12/18 01:48:26;;;;;;;9.00;4.40;;;7.50;99.90;;;;;;5005896;28;20113;-20
2023/12/18 01:50:54;;;;;;;9.30;5.00;;;7.50;99.90;;;;;;5017671;28;20254;-19
2023/12/18 01:53:28;;;;;;;11.75;5.45;;;7.50;99.90;;;;;;5010354;28;20014;-19
2023/12/18 01:55:55;;;;;;;11.15;5.80;;;7.50;99.90;;;;;;4999830;28;20625;-19
2023/12/18 01:58:21;;;;;;;10.85;5.40;;;7.50;99.90;;;;;;5023587;28;20049;-20
2023/12/18 02:00:48;;;;;;;12.60;5.83;;;7.60;99.90;;;;;;5009431;28;20116;-19
2023/12/18 02:03:16;;;;;;;12.43;5.10;;;7.50;99.90;;;;;;5028408;28;20777;-20
2023/12/18 02:05:43;;;;;;;12.70;5.35;;;7.50;99.90;;;;;;5016509;28;20478;-20
2023/12/18 02:08:10;;;;;;;11.10;5.38;;;7.60;99.90;;;;;;5029455;28;20406;-19
2023/12/18 02:10:36;;;;;;;11.52;5.32;;;7.60;99.90;;;;;;4987642;28;21504;-19
2023/12/18 02:13:02;;;;;;;10.87;4.90;;;7.60;99.90;;;;;;4996340;28;20528;-19
2023/12/18 02:15:28;;;;;;;11.15;4.57;;;7.60;99.90;;;;;;5010451;28;20021;-19
2023/12/18 02:17:54;;;;;;;9.70;5.03;;;7.70;99.90;;;;;;5028021;28;20021;-20
2023/12/18 02:20:20;;;;;;;9.65;4.53;;;7.60;99.90;;;;;;5008492;28;20029;-20
2023/12/18 02:22:46;;;;;;;15.63;6.18;;;7.60;99.90;;;;;;5021023;28;20272;-19
2023/12/18 02:25:12;;;;;;;10.32;4.55;;;7.60;99.90;;;;;;5026816;28;20399;-20
2023/12/18 02:27:39;;;;;;;11.50;5.17;;;7.60;99.90;;;;;;5019050;28;20329;-19
2023/12/18 02:30:05;;;;;;;11.52;5.50;;;7.60;99.90;;;;;;4997955;28;20627;-20
2023/12/18 02:32:31;;;;;;;12.48;6.07;;;7.60;99.90;;;;;;5014874;28;20026;-19
2023/12/18 02:34:57;;;;;;;12.73;5.90;;;7.70;99.90;;;;;;5032875;28;20032;-19
2023/12/18 02:37:24;;;;;;;11.15;5.68;;;7.70;99.90;;;;;;5001760;28;20318;-19
2023/12/18 02:39:50;;;;;;;10.75;4.90;;;7.70;99.90;;;;;;5028133;28;20090;-19
2023/12/18 02:42:15;;;;;;;11.57;5.80;;;7.70;99.90;;;;;;5008560;28;20029;-19
2023/12/18 02:44:41;;;;;;;12.60;5.80;;;7.70;99.90;;;;;;5024069;28;20502;-20
2023/12/18 02:47:07;;;;;;;13.23;5.80;;;7.70;99.90;;;;;;4971701;28;25379;-19
2023/12/18 02:49:32;;;;;;;10.82;5.00;;;7.70;99.90;;;;;;5029666;28;20041;-20
2023/12/18 02:51:58;;;;;;;11.93;5.07;;;6.00;99.90;;;;;;5020174;28;20025;-19
2023/12/18 02:54:24;;;;;;;12.75;5.35;;;7.70;99.90;;;;;;5034033;28;20394;-19
2023/12/18 02:56:50;;;;;;;13.93;5.50;;;7.80;99.90;;;;;;5017607;28;21157;-20
2023/12/18 02:59:15;;;;;;;12.60;5.35;;;7.80;99.90;;;;;;5027586;28;20014;-20
2023/12/18 03:01:41;;;;;;;13.97;5.97;;;7.80;99.90;;;;;;4992576;28;20538;-20
2023/12/18 03:04:07;;;;;;;12.48;5.70;;;7.80;99.90;;;;;;5025255;28;20088;-20
2023/12/18 03:06:33;;;;;;;14.02;5.65;;;7.80;99.90;;;;;;5016781;28;20040;-20
2023/12/18 03:08:58;;;;;;;10.83;5.47;;;7.80;99.90;;;;;;5022016;28;20047;-19
2023/12/18 03:11:24;;;;;;;14.27;6.13;;;7.80;99.90;;;;;;5030172;28;20057;-19
2023/12/18 03:13:50;;;;;;;14.33;5.70;;;7.90;99.90;;;;;;5016861;28;20366;-20
2023/12/18 03:16:15;;;;;;;12.93;5.73;;;7.90;99.90;;;;;;5023655;28;20103;-19
2023/12/18 03:18:41;;;;;;;11.57;5.45;;;7.90;99.90;;;;;;4985465;28;20029;-20
2023/12/18 03:21:10;;;;;;;14.20;6.50;;;7.90;99.90;;;;;;5032487;28;20329;-19
2023/12/18 03:23:36;;;;;;;13.80;5.85;;;7.90;99.90;;;;;;5002454;28;20043;-20
2023/12/18 03:26:02;;;;;;;15.15;6.53;;;7.90;99.90;;;;;;5029455;28;20267;-19
2023/12/18 03:28:28;;;;;;;14.18;6.43;;;7.90;99.90;;;;;;5017271;28;20041;-19
2023/12/18 03:30:54;;;;;;;15.87;6.70;;;7.90;99.90;;;;;;5003840;28;20285;-19
2023/12/18 03:33:20;;;;;;;13.90;6.10;;;7.90;99.90;;;;;;5015544;28;20021;-20
2023/12/18 03:35:45;;;;;;;11.23;5.53;;;7.90;99.90;;;;;;5027004;28;20024;-20
2023/12/18 03:38:12;;;;;;;14.98;6.68;;;7.80;99.90;;;;;;5021351;28;20025;-20
2023/12/18 03:40:38;;;;;;;12.70;5.95;;;7.90;99.90;;;;;;5015223;28;20055;-20
2023/12/18 03:43:04;;;;;;;12.97;6.47;;;7.90;99.90;;;;;;5011608;28;20032;-19
2023/12/18 03:45:30;;;;;;;11.60;5.70;;;7.90;99.90;;;;;;5029285;28;20101;-20
2023/12/18 03:47:56;;;;;;;13.68;6.00;;;7.90;99.90;;;;;;5027574;28;20314;-19
2023/12/18 03:50:22;;;;;;;11.40;5.40;;;7.90;99.90;;;;;;5017789;28;20065;-20
2023/12/18 03:52:47;;;;;;;11.65;5.00;;;7.90;99.90;;;;;;5025168;28;20025;-20
2023/12/18 03:55:13;;;;;;;12.27;5.20;;;7.90;99.90;;;;;;5019539;28;20021;-20
2023/12/18 03:57:39;;;;;;;13.82;5.80;;;7.90;99.90;;;;;;5028039;28;20037;-20
2023/12/18 04:00:06;;;;;;;11.00;5.33;;;7.90;99.90;;;;;;5000138;28;20029;-19
2023/12/18 04:02:32;;;;;;;9.75;5.07;;;7.90;99.90;;;;;;5030541;28;20046;-20
2023/12/18 04:04:58;;;;;;;12.52;5.63;;;7.90;99.90;;;;;;5001115;28;20444;-20
2023/12/18 04:07:23;;;;;;;12.13;5.07;;;10.20;99.90;;;;;;5015097;28;20028;-19
2023/12/18 04:09:49;;;;;;;11.77;5.30;;;7.90;99.90;;;;;;4998309;28;20142;-22
2023/12/18 04:12:15;;;;;;;10.00;4.67;;;7.90;99.90;;;;;;5025362;28;20419;-22
2023/12/18 04:14:44;;;;;;;12.43;5.53;;;7.90;99.90;;;;;;5008314;28;20425;-22
2023/12/18 04:17:10;;;;;;;10.88;4.90;;;7.90;99.90;;;;;;5018449;28;20033;-22
2023/12/18 04:19:35;;;;;;;15.23;6.23;;;7.90;99.90;;;;;;5025414;28;20226;-22
2023/12/18 04:22:01;;;;;;;13.47;5.60;;;7.90;99.90;;;;;;4998443;28;20367;-22
2023/12/18 04:24:27;;;;;;;11.90;5.68;;;7.90;99.90;;;;;;5018905;28;20410;-22
2023/12/18 04:26:54;;;;;;;10.97;5.10;;;7.90;99.90;;;;;;5007375;28;20034;-22
2023/12/18 04:29:20;;;;;;;12.20;5.45;;;7.90;99.90;;;;;;5028519;28;20482;-22
2023/12/18 04:31:49;;;;;;;12.32;5.47;;;7.90;99.90;;;;;;5016663;28;21761;-22
2023/12/18 04:34:15;;;;;;;15.05;5.45;;;7.90;99.90;;;;;;5027700;28;20028;-22
2023/12/18 04:36:40;;;;;;;14.93;6.27;;;8.00;99.90;;;;;;5016790;28;20033;-22
2023/12/18 04:39:06;;;;;;;11.32;5.22;;;8.00;99.90;;;;;;5027584;28;20103;-22
2023/12/18 04:41:32;;;;;;;10.70;5.22;;;8.00;99.90;;;;;;5016476;28;20029;-22
2023/12/18 04:43:59;;;;;;;12.80;5.72;;;8.00;99.90;;;;;;5010580;28;20535;-22
2023/12/18 04:46:25;;;;;;;10.80;5.27;;;8.00;99.90;;;;;;5015508;28;20363;-22
2023/12/18 04:48:50;;;;;;;13.90;6.05;;;8.00;99.90;;;;;;5027405;28;20040;-22
2023/12/18 04:51:16;;;;;;;13.10;6.23;;;8.00;99.90;;;;;;5011911;28;20644;-22
2023/12/18 04:53:42;;;;;;;12.07;5.47;;;8.00;99.90;;;;;;5030598;28;20032;-22
2023/12/18 04:56:08;;;;;;;11.80;5.60;;;8.00;99.90;;;;;;5000472;28;20021;-22
2023/12/18 04:58:35;;;;;;;12.35;4.95;;;8.00;99.90;;;;;;5019299;28;20023;-22
2023/12/18 05:01:04;;;;;;;14.75;6.28;;;8.00;99.90;;;;;;5024952;28;20047;-22
2023/12/18 05:03:30;;;;;;;12.57;5.18;;;8.10;99.90;;;;;;5017772;28;20032;-22
2023/12/18 05:05:55;;;;;;;11.70;5.13;;;8.10;99.90;;;;;;5014174;28;20029;-22
2023/12/18 05:08:21;;;;;;;14.07;5.55;;;8.00;99.90;;;;;;5021146;28;20503;-22
2023/12/18 05:10:47;;;;;;;13.47;6.10;;;8.10;99.90;;;;;;5017851;28;20695;-22
2023/12/18 05:13:13;;;;;;;14.30;6.45;;;8.10;99.90;;;;;;5017228;28;20024;-22
2023/12/18 05:15:39;;;;;;;14.18;6.07;;;8.10;99.90;;;;;;5029431;28;20597;-22
2023/12/18 05:18:05;;;;;;;13.47;6.57;;;8.10;99.90;;;;;;5014085;28;20754;-22
2023/12/18 05:20:31;;;;;;;11.80;5.00;;;8.10;99.90;;;;;;5031168;28;20116;-20
2023/12/18 05:22:57;;;;;;;11.33;5.97;;;8.10;99.90;;;;;;5001934;28;20384;-20
2023/12/18 05:25:22;;;;;;;12.52;5.30;;;8.10;99.90;;;;;;5013115;28;20451;-19
2023/12/18 05:27:48;;;;;;;15.87;7.03;;;8.20;99.90;;;;;;5022198;28;20388;-20
2023/12/18 05:30:14;;;;;;;14.80;6.53;;;8.10;99.90;;;;;;5029172;28;20583;-20
2023/12/18 05:32:40;;;;;;;12.85;5.97;;;8.10;99.90;;;;;;4979611;28;20078;-20
2023/12/18 05:35:07;;;;;;;14.97;6.27;;;8.20;99.90;;;;;;5024277;28;20449;-20
2023/12/18 05:37:32;;;;;;;13.38;6.20;;;8.20;99.90;;;;;;5023384;28;20092;-20
2023/12/18 05:39:58;;;;;;;14.88;5.88;;;8.20;99.90;;;;;;5009539;28;20514;-19
2023/12/18 05:42:24;;;;;;;10.90;5.60;;;8.20;99.90;;;;;;5022085;28;20036;-20
2023/12/18 05:44:50;;;;;;;12.40;5.00;;;8.20;99.90;;;;;;5027954;28;20036;-20
2023/12/18 05:47:16;;;;;;;10.93;4.85;;;8.20;99.90;;;;;;5029473;28;20037;-19
2023/12/18 05:49:42;;;;;;;13.60;5.97;;;8.20;99.90;;;;;;5017011;28;20026;-20
2023/12/18 05:52:07;;;;;;;12.88;5.80;;;8.20;99.90;;;;;;5029436;28;20057;-19
2023/12/18 05:54:33;;;;;;;12.77;5.60;;;8.20;99.90;;;;;;5013602;28;20026;-20
2023/12/18 05:56:59;;;;;;;15.30;6.30;;;8.20;99.90;;;;;;5026097;28;20029;-19
2023/12/18 05:59:25;;;;;;;12.60;5.50;;;8.20;99.90;;;;;;4980140;28;20575;-20
2023/12/18 06:01:50;;;;;;;12.52;5.60;;;8.20;99.90;;;;;;4996002;28;20029;-20
2023/12/18 06:04:16;;;;;;;10.13;4.80;;;8.30;99.90;;;;;;5024250;28;20028;-19
2023/12/18 06:06:42;;;;;;;12.70;5.80;;;8.30;99.90;;;;;;5034762;28;20030;-20
2023/12/18 06:09:08;;;;;;;14.25;6.10;;;8.20;99.90;;;;;;5018813;28;20044;-20
2023/12/18 06:11:33;;;;;;;15.17;6.20;;;8.30;99.90;;;;;;5019012;28;20025;-19
2023/12/18 06:13:59;;;;;;;15.05;6.55;;;8.30;99.90;;;;;;5017798;28;20398;-20
2023/12/18 06:16:25;;;;;;;16.60;6.67;;;8.30;99.90;;;;;;5021647;28;20490;-20
2023/12/18 06:18:51;;;;;;;14.93;6.28;;;8.30;99.90;;;;;;5025623;28;20032;-20
2023/12/18 06:21:16;;;;;;;16.67;7.33;;;8.30;99.90;;;;;;5029173;28;20181;-19
2023/12/18 06:23:43;;;;;;;14.80;6.63;;;8.30;99.90;;;;;;5018633;28;20120;-20
2023/12/18 06:26:09;;;;;;;15.25;6.90;;;8.30;99.90;;;;;;5029791;28;20037;-20
2023/12/18 06:28:35;;;;;;;15.13;6.43;;;8.30;99.90;;;;;;5020719;28;20028;-19
2023/12/18 06:31:01;;;;;;;15.55;6.45;;;8.30;99.90;;;;;;5019242;28;20140;-20
2023/12/18 06:33:27;;;;;;;12.63;5.32;;;9.80;99.90;;;;;;5008644;28;20358;-20
2023/12/18 06:35:53;;;;;;;15.13;6.80;;;8.30;99.90;;;;;;5024051;28;20033;-19
2023/12/18 06:38:19;;;;;;;13.63;5.78;;;8.30;99.90;;;;;;4989491;28;21441;-20
2023/12/18 06:40:45;;;;;;;12.33;6.30;;;8.40;99.90;;;;;;5029293;28;20028;-20
2023/12/18 06:43:10;;;;;;;15.73;6.70;;;8.40;99.90;;;;;;5024889;28;20095;-20
2023/12/18 06:45:36;;;;;;;14.82;6.50;;;8.40;99.90;;;;;;5016187;28;20033;-20
2023/12/18 06:48:03;;;;;;;15.87;6.50;;;8.30;99.90;;;;;;5002599;28;20300;-20
2023/12/18 06:50:29;;;;;;;15.55;6.72;;;8.40;99.90;;;;;;4999211;28;20469;-19
2023/12/18 06:52:55;;;;;;;14.40;6.28;;;8.40;99.90;;;;;;5013471;28;20510;-19
2023/12/18 06:55:21;;;;;;;14.93;6.50;;;8.40;99.90;;;;;;5009457;28;20025;-20
2023/12/18 06:57:47;;;;;;;14.80;6.60;;;8.40;99.90;;;;;;4974067;28;20029;-20
2023/12/18 07:00:13;;;;;;;12.53;6.20;;;8.40;99.90;;;;;;5000292;28;20025;-20
2023/12/18 07:02:39;;;;;;;16.20;6.97;;;8.40;99.90;;;;;;5017580;28;20386;-19
2023/12/18 07:05:05;;;;;;;13.88;6.63;;;8.30;99.90;;;;;;5017833;28;20040;-20
2023/12/18 07:07:30;;;;;;;14.23;6.40;;;8.30;99.90;;;;;;5030097;28;20025;-20
2023/12/18 07:09:56;;;;;;;11.05;5.22;;;8.30;99.90;;;;;;5018360;28;20091;-20
2023/12/18 07:12:22;;;;;;;17.23;7.30;;;8.40;99.90;;;;;;5018067;28;20034;-20
2023/12/18 07:14:48;;;;;;;12.53;5.23;;;8.30;99.90;;;;;;5025643;28;20021;-20
2023/12/18 07:17:14;;;;;;;13.27;6.20;;;8.30;99.90;;;;;;5001643;28;20498;-20
2023/12/18 07:19:40;;;;;;;13.70;5.87;;;8.30;99.90;;;;;;5014338;28;20041;-20
2023/12/18 07:22:06;;;;;;;14.90;6.70;;;8.30;99.90;;;;;;5014846;28;20465;-20
2023/12/18 07:24:31;;;;;;;13.35;5.93;;;8.30;99.90;;;;;;5014015;28;20033;-19
2023/12/18 07:26:57;;;;;;;15.67;6.77;;;8.30;99.90;;;;;;5027953;28;21206;-19
2023/12/18 07:29:23;;;;;;;18.90;6.72;;;8.30;99.90;;;;;;5000969;28;20028;-20
2023/12/18 07:31:49;;;;;;;14.10;5.97;;;8.30;99.90;;;;;;5030708;28;20688;-19
2023/12/18 07:34:15;;;;;;;14.77;6.00;;;8.30;99.90;;;;;;5019376;28;20698;-20
2023/12/18 07:36:41;;;;;;;15.45;6.10;;;8.30;99.90;;;;;;5004972;28;20030;-20
2023/12/18 07:39:07;;;;;;;12.33;5.57;;;6.90;99.90;;;;;;5013379;28;20381;-21
2023/12/18 07:41:33;;;;;;;15.02;5.97;;;8.40;99.90;;;;;;5029214;28;20022;-22
2023/12/18 07:43:59;;;;;;;15.13;5.85;;;8.30;99.90;;;;;;5014120;28;20107;-22
2023/12/18 07:46:26;;;;;;;14.90;5.77;;;8.40;99.90;;;;;;5020475;28;20375;-22
2023/12/18 07:48:53;;;;;;;13.55;5.70;;;8.30;99.90;;;;;;5002655;28;22256;-22
2023/12/18 07:51:19;;;;;;;12.18;5.40;;;8.40;99.90;;;;;;5003160;28;20220;-22
2023/12/18 07:53:45;;;;;;;13.13;5.40;;;8.30;99.90;;;;;;5002639;28;20264;-22
2023/12/18 07:56:11;;;;;;;11.75;5.53;;;8.40;99.90;;;;;;5030132;28;20438;-22
2023/12/18 07:58:40;;;;;;;10.13;4.50;;;8.40;99.90;;;;;;5029870;28;20071;-22
2023/12/18 08:01:06;;;;;;;11.35;5.35;;;8.40;99.90;;;;;;5002428;28;20029;-22
2023/12/18 08:03:32;;;;;;;13.55;5.57;;;8.40;99.90;;;;;;4999010;28;20030;-22
2023/12/18 08:05:58;;;;;;;15.57;6.40;;;8.40;99.90;;;;;;5015998;28;20056;-22
2023/12/18 08:08:23;;;;;;;17.80;6.47;;;8.40;99.90;;;;;;4998944;28;20037;-22
2023/12/18 08:10:49;;;;;;;17.88;7.28;;;8.40;99.90;;;;;;5013004;28;20032;-22
2023/12/18 08:13:15;;;;;;;13.73;6.20;;;8.40;99.90;;;;;;5027903;28;20099;-22
2023/12/18 08:15:41;;;;;;;13.05;5.88;;;8.40;99.90;;;;;;5017497;28;20406;-22
2023/12/18 08:18:08;;;;;;;15.02;6.30;;;8.40;99.90;;;;;;5012010;28;20040;-22
2023/12/18 08:20:33;;;;;;;11.97;5.73;;;8.40;99.90;;;;;;5017724;28;20033;-22
2023/12/18 08:22:59;;;;;;;14.82;6.47;;;8.40;99.90;;;;;;5016907;28;20084;-22
2023/12/18 08:25:25;;;;;;;12.80;5.72;;;8.40;99.90;;;;;;5007980;28;20292;-22
2023/12/18 08:27:51;;;;;;;14.80;6.40;;;8.40;99.90;;;;;;5027345;28;20040;-22
2023/12/18 08:30:17;;;;;;;14.00;5.93;;;8.30;99.90;;;;;;4994076;28;20265;-22
2023/12/18 08:32:43;;;;;;;12.10;5.25;;;8.40;99.90;;;;;;5000987;28;20024;-22
2023/12/18 08:35:09;;;;;;;13.40;6.00;;;8.30;99.90;;;;;;5030633;28;20028;-22
2023/12/18 08:37:34;;;;;;;17.40;6.70;;;8.30;99.90;;;;;;4989356;28;20030;-22
2023/12/18 08:40:00;;;;;;;13.20;6.37;;;8.30;99.90;;;;;;5006616;28;20447;-22
2023/12/18 08:42:26;;;;;;;12.85;5.90;;;8.30;99.90;;;;;;5021463;28;20238;-22
2023/12/18 08:44:51;;;;;;;13.03;5.60;;;8.30;99.90;;;;;;5018276;28;20025;-22
2023/12/18 08:47:18;;;;;;;11.57;5.40;;;8.30;99.90;;;;;;5026597;28;20284;-22
2023/12/18 08:49:43;;;;;;;12.55;5.43;;;8.20;99.90;;;;;;5024314;28;20178;-21
2023/12/18 08:52:09;;;;;;;11.17;4.90;;;8.30;99.90;;;;;;5000830;28;20029;-22
2023/12/18 08:54:35;;;;;;;12.15;5.55;;;8.30;99.90;;;;;;4984086;28;20089;-22
2023/12/18 08:57:00;;;;;;;12.27;5.23;;;8.30;99.90;;;;;;5015251;28;20098;-22
2023/12/18 08:59:26;;;;;;;12.77;6.00;;;8.20;99.90;;;;;;5026530;28;20346;-22
2023/12/18 09:01:52;;;;;;;11.45;5.10;;;8.30;99.90;;;;;;4985024;28;20028;-22
2023/12/18 09:04:18;;;;;;;12.03;5.17;;;8.30;99.90;;;;;;5028457;28;20024;-22
2023/12/18 09:06:43;;;;;;;8.07;3.92;;;8.30;99.90;;;;;;5007989;28;20434;-22
2023/12/18 09:09:10;;;;;;;12.40;5.40;;;8.30;99.90;;;;;;5006712;28;20035;-22
2023/12/18 09:11:35;;;;;;;10.88;4.53;;;8.40;99.90;;;;;;5008811;28;20178;-22
2023/12/18 09:14:03;;;;;;;11.07;4.82;;;8.30;99.90;;;;;;4998243;28;20035;-22
2023/12/18 09:16:29;;;;;;;16.17;7.00;;;8.40;99.90;;;;;;5009269;28;20486;-22
2023/12/18 09:18:55;;;;;;;13.57;5.82;;;8.40;99.90;;;;;;5017008;28;20473;-22
2023/12/18 09:21:21;;;;;;;13.45;5.93;;;8.40;99.90;;;;;;5026466;28;20120;-22
2023/12/18 09:23:47;;;;;;;11.10;5.43;;;8.40;99.90;;;;;;4983888;28;20623;-22
2023/12/18 09:26:16;;;;;;;11.87;5.30;;;8.40;99.90;;;;;;5017294;28;20922;-22
2023/12/18 09:28:43;;;;;;;9.25;4.00;;;8.40;99.90;;;;;;5014647;28;20749;-22
2023/12/18 09:31:09;;;;;;;10.45;5.30;;;8.40;99.90;;;;;;5027038;28;20028;-22
2023/12/18 09:33:34;;;;;;;9.03;4.37;;;8.40;99.90;;;;;;5015183;28;20702;-22
2023/12/18 09:36:01;;;;;;;10.90;4.60;;;8.40;99.90;;;;;;5026483;28;20266;-22
2023/12/18 09:38:26;;;;;;;11.20;5.00;;;8.40;99.90;;;;;;4998960;28;20402;-22
2023/12/18 09:40:52;;;;;;;11.00;4.83;;;8.40;99.90;;;;;;4993700;28;20457;-22
2023/12/18 09:43:19;;;;;;;10.57;5.03;;;8.40;99.90;;;;;;5013885;28;20268;-22
2023/12/18 09:45:48;;;;;;;13.20;5.03;;;8.40;99.90;;;;;;5025748;28;20061;-22
2023/12/18 09:48:16;;;;;;;10.55;4.88;;;8.40;99.90;;;;;;5026482;28;20364;-22
2023/12/18 09:50:44;;;;;;;10.82;4.88;;;8.40;99.90;;;;;;5021733;28;20028;-22
2023/12/18 09:53:12;;;;;;;11.50;5.80;;;8.40;99.90;;;;;;5027268;28;20032;-22
2023/12/18 09:55:40;;;;;;;10.93;5.47;;;8.50;99.90;;;;;;5001393;28;20084;-22
2023/12/18 09:58:06;;;;;;;7.80;4.00;;;8.50;99.90;;;;;;4992414;28;20033;-22
2023/12/18 10:00:33;;;;;;;8.95;3.75;;;8.50;99.90;;;;;;5021465;28;20033;-22
2023/12/18 10:03:00;;;;;;;13.00;5.35;;;8.50;99.90;;;;;;5027543;28;20315;-22
2023/12/18 10:05:26;;;;;;;10.03;4.83;;;8.60;99.90;;;;;;5026399;28;20045;-22
2023/12/18 10:07:53;;;;;;;10.88;5.10;;;8.60;99.90;;;;;;4989878;28;20033;-22
2023/12/18 10:10:20;;;;;;;10.15;4.47;;;8.60;99.90;;;;;;5000254;28;20576;-22
2023/12/18 10:12:47;;;;;;;9.15;4.47;;;8.60;99.90;;;;;;4976493;28;20036;-22
2023/12/18 10:15:12;;;;;;;11.35;4.80;;;8.60;99.90;;;;;;5006524;28;20034;-22
2023/12/18 10:17:39;;;;;;;11.97;5.00;;;8.60;99.90;;;;;;5026384;28;20043;-22
2023/12/18 10:20:07;;;;;;;10.82;4.82;;;8.60;99.90;;;;;;5027660;28;20083;-22
2023/12/18 10:22:33;;;;;;;12.40;4.72;;;8.70;99.90;;;;;;5025646;28;20040;-22
2023/12/18 10:24:59;;;;;;;10.37;4.97;;;8.70;99.90;;;;;;5017484;28;20421;-22
2023/12/18 10:27:25;;;;;;;10.87;5.23;;;8.70;99.90;;;;;;4998531;28;20049;-22
2023/12/18 10:29:54;;;;;;;9.35;5.00;;;8.80;99.90;;;;;;5004142;28;20619;-22
2023/12/18 10:32:22;;;;;;;9.48;4.60;;;8.70;99.90;;;;;;5028967;28;20036;-22
2023/12/18 10:34:50;;;;;;;10.88;5.20;;;8.70;99.90;;;;;;4995656;28;20367;-22
2023/12/18 10:37:19;;;;;;;12.20;5.18;;;8.80;99.90;;;;;;5030572;28;20049;-22
2023/12/18 10:39:49;;;;;;;9.37;4.27;;;8.80;99.90;;;;;;5016230;28;20025;-22
2023/12/18 10:42:36;;;;;;;9.57;4.30;;;8.80;99.90;;;;;;5017658;28;20030;-22
2023/12/18 10:45:08;;;;;;;10.40;4.97;;;8.80;99.90;;;;;;5011069;28;20082;-22
2023/12/18 10:47:35;;;;;;;10.73;4.75;;;8.80;99.90;;;;;;4993332;28;20052;-22
2023/12/18 10:50:03;;;;;;;14.40;5.75;;;8.90;99.90;;;;;;4985295;28;20029;-22
2023/12/18 10:52:30;;;;;;;10.57;4.90;;;8.90;99.90;;;;;;5032615;28;20419;-22
2023/12/18 10:55:00;;;;;;;11.80;5.30;;;8.90;99.90;;;;;;4993487;28;20482;-22
2023/12/18 10:57:28;;;;;;;12.30;5.55;;;9.00;99.90;;;;;;4985616;28;20117;-22
2023/12/18 10:59:56;;;;;;;10.15;4.93;;;8.90;99.90;;;;;;5013694;28;20119;-22
2023/12/18 11:02:24;;;;;;;9.70;4.80;;;8.90;99.90;;;;;;5020264;28;20316;-22
2023/12/18 11:04:50;;;;;;;11.13;4.90;;;9.00;99.90;;;;;;5031952;28;20613;-22
2023/12/18 11:07:19;;;;;;;9.57;4.50;;;9.00;99.90;;;;;;5012462;28;20402;-22
2023/12/18 11:09:45;;;;;;;11.80;5.15;;;9.00;99.90;;;;;;4984291;28;20099;-19
2023/12/18 11:12:15;;;;;;;8.10;3.88;;;9.00;99.90;;;;;;5014002;28;20068;-20
2023/12/18 11:15:02;;;;;;;8.93;4.72;;;9.00;99.90;;;;;;5018939;28;20040;-20
2023/12/18 11:17:28;;;;;;;9.30;4.17;;;9.00;99.90;;;;;;5005909;28;20053;-19
2023/12/18 11:20:18;;;;;;;9.75;4.72;;;9.00;99.90;;;;;;5030451;28;20033;-20
2023/12/18 11:22:47;;;;;;;11.32;5.35;;;9.10;99.90;;;;;;5030348;28;20128;-19
2023/12/18 11:25:16;;;;;;;11.05;5.50;;;9.10;99.90;;;;;;5016534;28;20033;-20
2023/12/18 11:27:45;;;;;;;9.70;4.60;;;9.10;99.90;;;;;;5030764;28;20055;-20
2023/12/18 11:30:36;;;;;;;11.43;5.10;;;9.10;99.90;;;;;;4996600;28;20036;-19
2023/12/18 11:33:07;;;;;;;9.57;4.50;;;9.10;99.90;;;;;;5010780;28;20446;-20
2023/12/18 11:35:36;;;;;;;9.02;4.35;;;9.10;99.90;;;;;;5025903;28;20112;-20
2023/12/18 11:38:12;;;;;;;10.30;4.82;;;9.10;99.90;;;;;;5025017;28;20170;-20
2023/12/18 11:40:40;;;;;;;11.43;4.87;;;9.10;99.90;;;;;;5024332;28;20037;-20
2023/12/18 11:43:11;;;;;;;9.18;4.25;;;9.10;99.90;;;;;;5021451;28;20021;-20
2023/12/18 11:45:44;;;;;;;10.35;4.90;;;9.10;99.90;;;;;;5017034;28;20120;-20
2023/12/18 11:48:15;;;;;;;10.63;5.47;;;9.10;99.90;;;;;;5002832;28;20419;-20
2023/12/18 11:50:41;;;;;;;12.20;5.80;;;8.20;99.90;;;;;;5008950;28;20494;-20
2023/12/18 11:53:34;;;;;;;8.07;4.17;;;9.10;99.90;;;;;;5029103;28;20108;-20
2023/12/18 11:56:08;;;;;;;11.77;5.47;;;9.10;99.90;;;;;;5004208;28;21072;-20
2023/12/18 11:58:36;;;;;;;11.98;5.57;;;9.10;99.90;;;;;;4985353;28;20048;-20
2023/12/18 12:01:03;;;;;;;13.10;5.73;;;9.10;99.90;;;;;;5011178;28;21463;-20
2023/12/18 12:03:31;;;;;;;13.75;5.35;;;9.10;99.90;;;;;;5010877;28;20711;-20
2023/12/18 12:05:58;;;;;;;13.18;5.63;;;9.10;99.90;;;;;;5029468;28;20419;-20
2023/12/18 12:08:24;;;;;;;9.50;4.88;;;9.10;99.90;;;;;;5026428;28;20576;-20
2023/12/18 12:10:50;;;;;;;11.53;5.03;;;9.10;99.90;;;;;;5019752;28;20151;-19
2023/12/18 12:13:20;;;;;;;8.03;3.83;;;8.70;99.90;;;;;;5005428;28;20283;-20
2023/12/18 12:16:03;;;;;;;12.50;4.88;;;9.10;99.90;;;;;;5006759;28;20029;-19
2023/12/18 12:18:34;;;;;;;11.35;5.55;;;9.10;99.90;;;;;;5015572;28;20242;-20
2023/12/18 12:21:00;;;;;;;10.65;4.60;;;9.10;99.90;;;;;;5020775;28;20060;-20
2023/12/18 12:23:27;;;;;;;13.03;5.93;;;9.10;99.90;;;;;;5010360;28;20345;-19
2023/12/18 12:25:57;;;;;;;12.03;5.67;;;9.10;99.90;;;;;;4974286;28;20939;-20
2023/12/18 12:28:23;;;;;;;11.18;5.78;;;9.20;99.90;;;;;;4999185;28;20078;-19
2023/12/18 12:30:49;;;;;;;10.73;5.35;;;9.10;99.90;;;;;;5007642;28;20504;-20
2023/12/18 12:33:17;;;;;;;11.15;5.38;;;9.10;99.90;;;;;;5013261;28;20029;-20
2023/12/18 12:35:44;;;;;;;10.57;5.07;;;9.20;99.90;;;;;;5008272;28;20044;-20
2023/12/18 12:38:10;;;;;;;14.60;6.75;;;9.20;99.90;;;;;;5025339;28;20312;-19
2023/12/18 12:40:44;;;;;;;14.00;6.30;;;11.70;99.90;;;;;;5011013;28;20128;-20
2023/12/18 12:43:11;;;;;;;13.15;6.50;;;9.20;99.90;;;;;;5003880;28;20053;-19
2023/12/18 12:45:38;;;;;;;12.77;6.05;;;9.20;99.90;;;;;;4998285;28;20091;-20